Terminal Aerodrome Forecast
Issued by NWS New Orleans/Baton Rouge, LA

Home | Current Version | Previous Version | Text Only | Print | Product List | Glossary On
Versions: 1 2 3 4 5 6 7 8 9 10 11 12 13 14 15
000
FTUS44 KLIX 280520
TAFNEW
TAF
KNEW 280520Z 2806/2906 15008KT P6SM SCT015
     FM280700 15008KT P6SM BKN015
     FM280900 16009KT P6SM BKN008
     FM281500 17015G24KT P6SM BKN015
     FM281900 17016G24KT P6SM BKN025
     FM290000 16015KT P6SM OVC015=

USA.gov is the U.S. government's official web portal to all federal, state and local government web resources and services.